Time;durP1;ratioP1;P1;durP2;ratioP2;P2;SDS_P1;SDS_P2;PMS_P1;PMS_P2;Temp;Humidity;BMP_temperature;BMP_pressure;BME280_temperature;BME280_humidity;BME280_pressure;Samples;Min_cycle;Max_cycle;Signal;HPM_P1;HPM_P2
2021/04/29 00:00:53;;;;;;;16.00;9.50;;;12.90;95.60;;;;;;5106880;28;20457;-76
2021/04/29 00:03:19;;;;;;;17.80;9.20;;;12.90;95.60;;;;;;5091732;28;20178;-75
2021/04/29 00:05:45;;;;;;;15.77;9.50;;;12.80;95.70;;;;;;5108068;28;20653;-75
2021/04/29 00:08:10;;;;;;;16.03;8.50;;;12.80;95.90;;;;;;5111544;28;20689;-75
2021/04/29 00:10:36;;;;;;;15.90;9.67;;;12.90;95.90;;;;;;5108303;28;20211;-75
2021/04/29 00:13:02;;;;;;;18.17;8.63;;;12.90;95.70;;;;;;5091877;28;20176;-75
2021/04/29 00:15:28;;;;;;;18.13;10.47;;;12.90;95.50;;;;;;5090147;28;20417;-74
2021/04/29 00:17:54;;;;;;;20.00;9.87;;;12.90;95.30;;;;;;5089089;28;20274;-74
2021/04/29 00:20:22;;;;;;;17.60;10.07;;;12.90;95.40;;;;;;5108443;28;20565;-74
2021/04/29 00:22:49;;;;;;;17.03;9.37;;;12.90;95.30;;;;;;5111029;28;20245;-75
2021/04/29 00:25:16;;;;;;;14.47;9.07;;;12.90;95.40;;;;;;5111374;28;20420;-75
2021/04/29 00:27:42;;;;;;;16.90;9.50;;;12.90;95.40;;;;;;5111345;28;20425;-76
2021/04/29 00:30:09;;;;;;;17.27;9.80;;;12.90;95.40;;;;;;5111006;28;20463;-75
2021/04/29 00:32:36;;;;;;;15.27;8.70;;;12.90;95.40;;;;;;5109840;28;20442;-76
2021/04/29 00:35:03;;;;;;;17.10;9.60;;;12.90;95.60;;;;;;5107447;28;20450;-74
2021/04/29 00:37:28;;;;;;;15.80;9.67;;;12.90;95.70;;;;;;5123512;28;20460;-75
2021/04/29 00:39:54;;;;;;;20.50;9.80;;;13.00;95.90;;;;;;5134187;27;20446;-74
2021/04/29 00:42:20;;;;;;;16.97;9.13;;;13.10;95.90;;;;;;5132947;27;20556;-74
2021/04/29 00:44:45;;;;;;;19.37;10.50;;;13.10;95.90;;;;;;5124159;27;20782;-73
2021/04/29 00:47:11;;;;;;;15.40;8.83;;;13.10;95.90;;;;;;5120601;28;20217;-74
2021/04/29 00:49:37;;;;;;;18.00;9.57;;;13.10;95.80;;;;;;5121600;27;20206;-74
2021/04/29 00:52:03;;;;;;;17.63;9.43;;;13.10;95.80;;;;;;5108204;27;20202;-73
2021/04/29 00:54:29;;;;;;;18.30;9.87;;;13.10;95.70;;;;;;5101419;28;20492;-74
2021/04/29 00:56:55;;;;;;;18.17;8.80;;;13.10;95.70;;;;;;5118227;28;20426;-74
2021/04/29 00:59:21;;;;;;;13.93;8.90;;;13.20;95.70;;;;;;5118244;28;20202;-74
2021/04/29 01:01:51;;;;;;;17.60;8.60;;;13.10;95.70;;;;;;5118230;27;20222;-75
2021/04/29 01:04:30;;;;;;;18.33;9.50;;;13.10;96.10;;;;;;5118024;27;20785;-75
2021/04/29 01:07:02;;;;;;;15.27;8.63;;;13.10;96.00;;;;;;5116990;28;20774;-73
2021/04/29 01:09:40;;;;;;;17.67;10.07;;;13.10;96.30;;;;;;5117359;27;20464;-74
2021/04/29 01:12:20;;;;;;;17.17;9.30;;;13.10;96.30;;;;;;5117399;27;20446;-73
2021/04/29 01:14:52;;;;;;;18.47;10.00;;;13.00;96.10;;;;;;5117353;27;20411;-74
2021/04/29 01:17:19;;;;;;;16.20;9.13;;;13.00;96.20;;;;;;5117371;28;20469;-73
2021/04/29 01:19:52;;;;;;;21.40;10.20;;;12.90;96.40;;;;;;5117181;27;20416;-75
2021/04/29 01:22:17;;;;;;;18.40;9.80;;;12.80;96.80;;;;;;5117077;28;20485;-76
2021/04/29 01:24:59;;;;;;;17.07;9.60;;;12.80;97.10;;;;;;5102785;28;21089;-76
2021/04/29 01:27:27;;;;;;;17.77;8.53;;;12.80;97.10;;;;;;5105361;28;20194;-74
2021/04/29 01:29:52;;;;;;;18.23;9.33;;;12.80;97.10;;;;;;5118918;27;20470;-75
2021/04/29 01:32:19;;;;;;;18.37;8.53;;;12.90;96.90;;;;;;5105429;28;20436;-74
2021/04/29 01:34:45;;;;;;;14.50;8.40;;;12.80;97.00;;;;;;5117422;27;20939;-77
2021/04/29 01:37:12;;;;;;;13.30;8.13;;;12.90;96.80;;;;;;5107209;28;20424;-76
2021/04/29 01:39:39;;;;;;;14.67;6.93;;;12.80;96.70;;;;;;5096728;28;20423;-75
2021/04/29 01:42:06;;;;;;;11.37;6.33;;;12.90;96.50;;;;;;5105235;28;20448;-75
2021/04/29 01:44:32;;;;;;;9.30;5.97;;;12.90;96.00;;;;;;5116770;27;20440;-74
2021/04/29 01:47:00;;;;;;;9.50;5.20;;;12.90;95.60;;;;;;5116833;28;20991;-76
2021/04/29 01:49:27;;;;;;;11.43;5.90;;;12.90;95.20;;;;;;5118677;28;20523;-74
2021/04/29 01:51:53;;;;;;;9.57;5.07;;;13.00;94.80;;;;;;5116962;28;20452;-76
2021/04/29 01:54:21;;;;;;;9.10;4.57;;;13.00;94.70;;;;;;5114735;28;20427;-75
2021/04/29 01:56:48;;;;;;;8.53;5.23;;;13.00;94.30;;;;;;5102071;28;20536;-76
2021/04/29 01:59:15;;;;;;;7.37;3.97;;;13.00;94.10;;;;;;5110500;28;20424;-75
2021/04/29 02:01:42;;;;;;;6.77;4.37;;;13.10;93.70;;;;;;5111807;28;20459;-74
2021/04/29 02:04:10;;;;;;;6.93;3.80;;;13.10;93.40;;;;;;5113649;28;20958;-75
2021/04/29 02:06:41;;;;;;;9.17;4.20;;;13.10;93.40;;;;;;5113468;28;20992;-74
2021/04/29 02:09:08;;;;;;;11.17;4.07;;;13.00;93.60;;;;;;5111603;28;20424;-76
2021/04/29 02:11:52;;;;;;;9.00;3.33;;;13.00;93.70;;;;;;5112133;28;20447;-75
2021/04/29 02:14:27;;;;;;;5.20;3.10;;;13.00;93.30;;;;;;5100875;28;20896;-74
2021/04/29 02:16:56;;;;;;;4.80;2.43;;;12.90;93.60;;;;;;5111862;28;20427;-76
2021/04/29 02:19:24;;;;;;;5.10;2.80;;;12.90;93.30;;;;;;5113244;28;20465;-74
2021/04/29 02:21:51;;;;;;;4.20;2.23;;;12.90;93.20;;;;;;5114332;28;20440;-73
2021/04/29 02:24:19;;;;;;;5.80;2.50;;;12.90;93.20;;;;;;5114304;28;20491;-76
2021/04/29 02:26:47;;;;;;;5.33;2.20;;;13.00;93.30;;;;;;5115691;27;20467;-77
2021/04/29 02:29:13;;;;;;;6.00;2.70;;;13.00;93.00;;;;;;5103741;28;20437;-75
2021/04/29 02:31:39;;;;;;;5.10;2.33;;;13.00;92.80;;;;;;5100442;28;21047;-75
2021/04/29 02:34:06;;;;;;;4.33;2.00;;;12.90;93.00;;;;;;5113080;28;20239;-76
2021/04/29 02:36:33;;;;;;;5.43;2.27;;;12.90;92.70;;;;;;5096117;28;20566;-76
2021/04/29 02:39:00;;;;;;;3.47;2.07;;;12.90;92.80;;;;;;5092301;28;20558;-75
2021/04/29 02:41:27;;;;;;;4.50;1.60;;;13.00;92.70;;;;;;5105368;28;20453;-74
2021/04/29 02:43:53;;;;;;;3.00;1.67;;;13.00;92.40;;;;;;5100709;28;20424;-74
2021/04/29 02:46:19;;;;;;;3.03;1.60;;;13.00;92.20;;;;;;5095771;28;20441;-74
2021/04/29 02:48:45;;;;;;;4.00;2.20;;;13.00;92.00;;;;;;5101538;28;20547;-74
2021/04/29 02:51:11;;;;;;;2.57;1.40;;;13.00;91.60;;;;;;5110425;28;21042;-76
2021/04/29 02:53:40;;;;;;;3.27;1.50;;;12.90;91.60;;;;;;5112266;28;20202;-73
2021/04/29 02:56:06;;;;;;;2.70;1.73;;;12.90;91.70;;;;;;5093603;28;20453;-74
2021/04/29 02:58:48;;;;;;;3.47;1.70;;;12.90;92.00;;;;;;5102516;28;20509;-74
2021/04/29 03:01:14;;;;;;;4.63;2.00;;;13.00;92.50;;;;;;5099224;28;20601;-74
2021/04/29 03:03:41;;;;;;;4.30;2.13;;;13.10;93.40;;;;;;5097707;28;20457;-73
2021/04/29 03:06:07;;;;;;;5.20;2.67;;;13.00;94.10;;;;;;5098625;28;20486;-74
2021/04/29 03:08:34;;;;;;;4.03;2.00;;;12.70;94.50;;;;;;5111835;28;20527;-74
2021/04/29 03:11:00;;;;;;;4.30;2.10;;;12.50;95.30;;;;;;5102748;28;20524;-74
2021/04/29 03:13:26;;;;;;;4.47;1.83;;;12.40;95.70;;;;;;5100850;28;20429;-74
2021/04/29 03:15:52;;;;;;;3.43;1.57;;;12.30;96.30;;;;;;5094099;28;20508;-73
2021/04/29 03:18:18;;;;;;;2.50;1.27;;;12.00;96.30;;;;;;5110767;28;20182;-73
2021/04/29 03:20:43;;;;;;;3.00;1.50;;;12.00;96.80;;;;;;5115516;28;20239;-74
2021/04/29 03:23:09;;;;;;;3.40;1.50;;;12.00;97.00;;;;;;5114418;28;20549;-74
2021/04/29 03:25:35;;;;;;;3.97;1.60;;;12.00;97.20;;;;;;5114564;28;20194;-74
2021/04/29 03:28:01;;;;;;;3.90;1.60;;;12.00;97.00;;;;;;5103577;28;20428;-73
2021/04/29 03:30:27;;;;;;;4.17;1.47;;;12.00;97.10;;;;;;5107302;28;20469;-74
2021/04/29 03:32:52;;;;;;;3.80;1.50;;;12.00;96.80;;;;;;5105744;28;20588;-74
2021/04/29 03:35:18;;;;;;;3.47;1.67;;;12.00;96.80;;;;;;5098915;28;20261;-75
2021/04/29 03:37:44;;;;;;;3.13;1.30;;;12.00;96.70;;;;;;5111552;28;20186;-73
2021/04/29 03:40:10;;;;;;;4.00;1.40;;;12.00;96.30;;;;;;5110857;28;20190;-74
2021/04/29 03:42:36;;;;;;;2.70;1.13;;;12.00;95.70;;;;;;5108981;28;20462;-74
2021/04/29 03:45:05;;;;;;;2.70;1.20;;;12.00;95.30;;;;;;5090381;28;20421;-73
2021/04/29 03:47:30;;;;;;;6.73;1.17;;;12.00;94.90;;;;;;5104367;28;20685;-73
2021/04/29 03:49:56;;;;;;;2.23;0.97;;;12.00;93.00;;;;;;5108869;28;20463;-75
2021/04/29 03:52:22;;;;;;;3.30;1.47;;;12.00;93.10;;;;;;5110259;28;20234;-74
2021/04/29 03:54:47;;;;;;;3.50;1.10;;;12.00;92.90;;;;;;5111012;28;20586;-72
2021/04/29 03:57:13;;;;;;;1.97;0.90;;;12.00;91.70;;;;;;5111573;28;20688;-74
2021/04/29 03:59:39;;;;;;;2.97;0.93;;;11.90;91.20;;;;;;5112262;28;20220;-75
2021/04/29 04:02:05;;;;;;;2.30;1.07;;;11.90;91.40;;;;;;5115015;28;20210;-75
2021/04/29 04:04:31;;;;;;;3.90;1.30;;;12.00;91.40;;;;;;5116211;28;20424;-75
2021/04/29 04:06:56;;;;;;;3.50;1.00;;;12.00;91.00;;;;;;5119300;28;20218;-75
2021/04/29 04:09:22;;;;;;;2.30;1.20;;;12.00;90.00;;;;;;5122889;28;20179;-75
2021/04/29 04:11:48;;;;;;;2.30;1.10;;;12.00;89.50;;;;;;5119792;28;20198;-75
2021/04/29 04:14:14;;;;;;;2.50;1.30;;;11.90;90.00;;;;;;5116897;28;20178;-73
2021/04/29 04:16:40;;;;;;;2.10;1.10;;;11.80;89.90;;;;;;5124415;28;20451;-74
2021/04/29 04:19:05;;;;;;;3.10;1.47;;;11.80;90.00;;;;;;5115706;28;20649;-74
2021/04/29 04:21:31;;;;;;;2.80;1.20;;;11.70;90.50;;;;;;5110495;28;20199;-75
2021/04/29 04:23:57;;;;;;;2.73;1.37;;;11.70;90.80;;;;;;5115082;28;20261;-74
2021/04/29 04:26:22;;;;;;;2.90;1.50;;;11.70;91.10;;;;;;5116279;28;20178;-75
2021/04/29 04:28:48;;;;;;;2.60;1.20;;;11.70;91.40;;;;;;5110516;28;20334;-75
2021/04/29 04:31:14;;;;;;;2.20;1.10;;;11.70;91.20;;;;;;5103678;28;20214;-73
2021/04/29 04:33:40;;;;;;;4.10;1.40;;;11.70;91.30;;;;;;5099444;28;20441;-75
2021/04/29 04:36:06;;;;;;;5.70;1.30;;;11.70;91.20;;;;;;5114691;28;20241;-75
2021/04/29 04:38:31;;;;;;;2.00;1.17;;;11.70;91.20;;;;;;5103647;28;20187;-74
2021/04/29 04:40:57;;;;;;;2.10;1.20;;;11.70;91.00;;;;;;5120401;28;20450;-75
2021/04/29 04:43:23;;;;;;;4.77;1.63;;;11.60;90.80;;;;;;5109562;28;20187;-75
2021/04/29 04:45:49;;;;;;;2.70;1.30;;;11.60;91.10;;;;;;5112966;28;20206;-75
2021/04/29 04:48:15;;;;;;;2.70;1.20;;;11.70;91.40;;;;;;5109495;28;20178;-75
2021/04/29 04:50:41;;;;;;;2.93;1.50;;;11.70;91.40;;;;;;5117190;28;20615;-76
2021/04/29 04:53:06;;;;;;;2.70;1.40;;;11.70;91.30;;;;;;5103497;28;20236;-75
2021/04/29 04:55:35;;;;;;;2.73;1.43;;;11.80;91.30;;;;;;5106533;28;20191;-74
2021/04/29 04:58:00;;;;;;;2.40;1.33;;;11.80;91.10;;;;;;5104084;28;20236;-73
2021/04/29 05:00:26;;;;;;;3.70;1.33;;;11.90;91.00;;;;;;5118624;28;20420;-75
2021/04/29 05:02:52;;;;;;;4.97;1.60;;;11.90;90.10;;;;;;5120604;28;20209;-75
2021/04/29 05:05:18;;;;;;;2.53;1.47;;;11.90;90.00;;;;;;5120923;28;20607;-74
2021/04/29 05:07:44;;;;;;;2.57;1.50;;;12.00;90.30;;;;;;5115667;28;21023;-74
2021/04/29 05:10:10;;;;;;;3.83;1.53;;;12.10;90.40;;;;;;5102329;28;20206;-77
2021/04/29 05:12:37;;;;;;;3.77;1.83;;;12.20;90.30;;;;;;5116071;28;20214;-75
2021/04/29 05:15:04;;;;;;;3.10;1.63;;;12.30;88.30;;;;;;5112923;28;20424;-75
2021/04/29 05:17:30;;;;;;;5.07;2.00;;;12.40;89.60;;;;;;5115669;28;20433;-73
2021/04/29 05:19:56;;;;;;;4.53;2.10;;;12.40;89.70;;;;;;5114001;28;20426;-76
2021/04/29 05:22:21;;;;;;;2.97;2.20;;;12.50;89.30;;;;;;5115248;28;20325;-75
2021/04/29 05:24:47;;;;;;;5.03;2.20;;;12.50;89.20;;;;;;5112605;28;20191;-74
2021/04/29 05:27:13;;;;;;;3.97;2.50;;;12.50;88.60;;;;;;5118889;28;20678;-74
2021/04/29 05:29:38;;;;;;;4.50;2.50;;;12.60;87.70;;;;;;5112173;28;20248;-74
2021/04/29 05:32:05;;;;;;;6.67;2.33;;;12.40;85.00;;;;;;5115844;28;20256;-75
2021/04/29 05:34:32;;;;;;;3.70;2.63;;;12.40;85.70;;;;;;5125662;28;20219;-75
2021/04/29 05:36:58;;;;;;;3.80;2.77;;;12.30;85.60;;;;;;5116017;28;20496;-76
2021/04/29 05:39:24;;;;;;;6.47;3.10;;;12.30;85.60;;;;;;5119699;28;20452;-74
2021/04/29 05:41:50;;;;;;;5.30;3.20;;;12.20;84.40;;;;;;5118076;28;20497;-76
2021/04/29 05:44:16;;;;;;;5.90;3.07;;;12.20;84.70;;;;;;5114571;28;20190;-75
2021/04/29 05:46:42;;;;;;;4.80;3.03;;;12.10;84.30;;;;;;5104330;28;20517;-74
2021/04/29 05:49:08;;;;;;;4.50;2.77;;;12.10;84.40;;;;;;5113061;28;20201;-76
2021/04/29 05:51:34;;;;;;;5.97;3.80;;;12.20;84.40;;;;;;5115943;28;20445;-75
2021/04/29 05:53:59;;;;;;;5.77;3.60;;;12.20;84.70;;;;;;5112947;28;20187;-74
2021/04/29 05:56:25;;;;;;;4.60;2.90;;;12.20;83.80;;;;;;5102848;28;20214;-76
2021/04/29 05:58:51;;;;;;;5.20;3.20;;;12.30;84.60;;;;;;5105308;28;20240;-76
2021/04/29 06:01:16;;;;;;;7.03;4.33;;;12.30;84.00;;;;;;5110119;28;20581;-76
2021/04/29 06:03:42;;;;;;;5.37;3.20;;;12.30;83.80;;;;;;5104208;28;20187;-75
2021/04/29 06:06:08;;;;;;;5.93;2.93;;;12.30;83.70;;;;;;5107909;28;20793;-75
2021/04/29 06:08:34;;;;;;;5.83;3.43;;;12.30;84.30;;;;;;5104284;28;20190;-75
2021/04/29 06:10:59;;;;;;;4.97;3.07;;;12.30;83.70;;;;;;5113174;28;20210;-76
2021/04/29 06:13:25;;;;;;;5.63;3.50;;;12.30;83.60;;;;;;5109413;28;20227;-75
2021/04/29 06:15:51;;;;;;;7.43;3.53;;;12.30;84.00;;;;;;5094704;28;20194;-75
2021/04/29 06:18:16;;;;;;;6.83;3.50;;;12.30;83.80;;;;;;5109782;28;20182;-75
2021/04/29 06:20:42;;;;;;;6.03;3.60;;;12.40;83.60;;;;;;5111817;28;20186;-74
2021/04/29 06:23:08;;;;;;;6.27;3.40;;;12.50;83.70;;;;;;5112293;28;20614;-75
2021/04/29 06:25:34;;;;;;;4.63;3.43;;;12.50;83.00;;;;;;5112459;28;20270;-75
2021/04/29 06:28:00;;;;;;;5.40;3.50;;;12.50;83.30;;;;;;5112880;28;20802;-75
2021/04/29 06:30:26;;;;;;;8.00;4.40;;;12.60;83.10;;;;;;5105044;28;20555;-74
2021/04/29 06:32:52;;;;;;;10.60;4.40;;;12.70;83.10;;;;;;5102556;28;20464;-73
2021/04/29 06:35:18;;;;;;;6.17;3.30;;;12.70;82.80;;;;;;5111784;28;20432;-74
2021/04/29 06:37:44;;;;;;;9.40;4.33;;;12.80;81.70;;;;;;5113052;28;20182;-74
2021/04/29 06:40:14;;;;;;;7.90;4.40;;;12.70;81.20;;;;;;5113104;28;20512;-75
2021/04/29 06:42:40;;;;;;;5.50;3.73;;;12.80;81.70;;;;;;5114693;28;20195;-76
2021/04/29 06:45:06;;;;;;;8.40;4.10;;;12.90;81.70;;;;;;5118789;28;20462;-76
2021/04/29 06:47:33;;;;;;;7.53;4.50;;;12.90;81.40;;;;;;5127594;28;20787;-74
2021/04/29 06:49:59;;;;;;;10.73;4.57;;;13.00;81.10;;;;;;5124458;28;20539;-75
2021/04/29 06:52:25;;;;;;;9.03;4.30;;;13.10;80.50;;;;;;5117755;28;20457;-75
2021/04/29 06:54:51;;;;;;;8.20;4.77;;;13.10;79.50;;;;;;5116121;28;21023;-76
2021/04/29 06:57:17;;;;;;;10.63;5.37;;;13.10;79.00;;;;;;5115693;28;20456;-74
2021/04/29 06:59:43;;;;;;;10.30;5.30;;;13.20;79.60;;;;;;5113824;28;20194;-73
2021/04/29 07:02:09;;;;;;;7.80;5.00;;;13.20;79.50;;;;;;5113307;28;20263;-75
2021/04/29 07:04:35;;;;;;;7.67;4.90;;;13.10;79.00;;;;;;5113234;28;21163;-75
2021/04/29 07:07:01;;;;;;;8.13;5.27;;;13.20;78.70;;;;;;5112804;28;20428;-73
2021/04/29 07:09:27;;;;;;;9.93;5.43;;;13.30;78.40;;;;;;5112595;28;20427;-76
2021/04/29 07:11:54;;;;;;;8.93;5.00;;;13.40;78.40;;;;;;5113774;28;21119;-74
2021/04/29 07:14:20;;;;;;;11.40;6.10;;;13.40;78.60;;;;;;5113681;28;20436;-72
2021/04/29 07:16:47;;;;;;;10.47;5.40;;;13.40;78.60;;;;;;5112613;28;20420;-76
2021/04/29 07:19:12;;;;;;;8.40;5.30;;;13.60;78.00;;;;;;5112465;27;20439;-74
2021/04/29 07:21:38;;;;;;;10.53;5.73;;;13.70;78.10;;;;;;5114438;28;20822;-75
2021/04/29 07:24:04;;;;;;;13.27;6.00;;;13.90;77.80;;;;;;5109805;28;20778;-74
2021/04/29 07:26:30;;;;;;;11.90;5.20;;;14.10;76.50;;;;;;5110613;28;20183;-75
2021/04/29 07:28:56;;;;;;;11.17;5.77;;;14.10;76.20;;;;;;5102765;28;20818;-74
2021/04/29 07:31:22;;;;;;;9.70;5.70;;;14.10;76.70;;;;;;5104423;28;20252;-75
2021/04/29 07:33:47;;;;;;;10.70;5.90;;;14.10;76.50;;;;;;5117352;28;20625;-75
2021/04/29 07:36:13;;;;;;;20.73;7.77;;;14.10;76.70;;;;;;5118133;28;20186;-73
2021/04/29 07:38:39;;;;;;;19.70;6.57;;;14.20;75.80;;;;;;5107197;28;20187;-72
2021/04/29 07:41:05;;;;;;;14.57;5.93;;;14.10;75.80;;;;;;5109006;28;20569;-75
2021/04/29 07:43:31;;;;;;;14.33;6.40;;;14.10;76.10;;;;;;5097761;28;20179;-74
2021/04/29 07:45:57;;;;;;;12.07;6.30;;;14.00;75.50;;;;;;5092920;28;20457;-74
2021/04/29 07:48:22;;;;;;;8.13;5.20;;;13.90;76.10;;;;;;5103533;28;20456;-73
2021/04/29 07:50:48;;;;;;;22.00;6.50;;;13.90;76.70;;;;;;5105097;28;20544;-74
2021/04/29 07:53:14;;;;;;;11.40;5.97;;;14.00;76.70;;;;;;5100633;28;20660;-73
2021/04/29 07:55:40;;;;;;;9.67;5.63;;;14.00;76.80;;;;;;5112787;28;20184;-76
2021/04/29 07:58:06;;;;;;;7.53;5.63;;;14.00;76.50;;;;;;5114859;28;20178;-76
2021/04/29 08:00:32;;;;;;;12.10;5.70;;;14.00;76.80;;;;;;5112427;28;20443;-77
2021/04/29 08:02:57;;;;;;;11.90;6.63;;;14.10;75.10;;;;;;5100368;28;20262;-68
2021/04/29 08:05:23;;;;;;;10.70;6.63;;;14.20;73.70;;;;;;5113929;28;20183;-70
2021/04/29 08:07:51;;;;;;;9.37;6.20;;;14.30;73.60;;;;;;5101132;28;20197;-68
2021/04/29 08:10:17;;;;;;;17.23;6.70;;;14.40;73.60;;;;;;5111496;28;20199;-70
2021/04/29 08:12:43;;;;;;;12.77;6.43;;;14.40;72.60;;;;;;5108659;28;20537;-71
2021/04/29 08:15:09;;;;;;;12.60;6.37;;;14.50;72.30;;;;;;5110313;28;20474;-69
2021/04/29 08:17:36;;;;;;;9.83;6.60;;;14.60;72.70;;;;;;5110986;28;20183;-68
2021/04/29 08:20:03;;;;;;;15.93;7.23;;;14.80;70.70;;;;;;5110709;28;20431;-71
2021/04/29 08:22:28;;;;;;;13.30;6.80;;;14.80;69.50;;;;;;5090442;28;20447;-69
2021/04/29 08:24:57;;;;;;;12.63;7.10;;;14.90;69.20;;;;;;5095187;28;20443;-70
2021/04/29 08:27:24;;;;;;;14.50;7.20;;;14.90;69.20;;;;;;5114570;28;20182;-69
2021/04/29 08:29:50;;;;;;;16.33;8.00;;;15.00;69.40;;;;;;5114806;28;20991;-69
2021/04/29 08:32:16;;;;;;;12.27;7.57;;;15.10;67.70;;;;;;5114567;28;20441;-69
2021/04/29 08:34:42;;;;;;;16.13;10.07;;;15.10;67.60;;;;;;5113404;28;21015;-67
2021/04/29 08:37:08;;;;;;;15.00;9.20;;;15.10;67.00;;;;;;5109972;28;20412;-70
2021/04/29 08:39:34;;;;;;;16.53;8.70;;;15.20;67.50;;;;;;5110779;28;20190;-69
2021/04/29 08:42:00;;;;;;;19.37;8.47;;;15.40;67.30;;;;;;5112081;28;20438;-71
2021/04/29 08:44:25;;;;;;;15.60;9.00;;;15.60;66.10;;;;;;5118197;28;20178;-70
2021/04/29 08:46:51;;;;;;;15.20;8.67;;;15.60;64.70;;;;;;5119841;28;20415;-71
2021/04/29 08:49:20;;;;;;;14.43;8.97;;;15.50;65.30;;;;;;5108609;28;20186;-69
2021/04/29 08:51:47;;;;;;;22.33;9.20;;;15.60;65.00;;;;;;5116486;28;20274;-69
2021/04/29 08:54:12;;;;;;;14.30;9.43;;;15.60;63.10;;;;;;5093095;28;20437;-68
2021/04/29 08:56:38;;;;;;;15.40;8.60;;;15.50;63.80;;;;;;5097566;28;20425;-68
2021/04/29 08:59:04;;;;;;;15.83;8.83;;;15.50;63.50;;;;;;5094031;28;20194;-69
2021/04/29 09:01:48;;;;;;;15.57;9.37;;;15.30;63.70;;;;;;5094446;28;20211;-69
2021/04/29 09:04:15;;;;;;;15.60;9.23;;;15.30;63.90;;;;;;5094087;28;20187;-70
2021/04/29 09:06:43;;;;;;;19.53;8.97;;;15.40;64.50;;;;;;5095614;28;20423;-69
2021/04/29 09:09:10;;;;;;;15.57;9.00;;;15.50;63.40;;;;;;5092918;28;20464;-68
2021/04/29 09:11:56;;;;;;;14.00;9.40;;;15.30;62.60;;;;;;5105643;28;20472;-69
2021/04/29 09:14:35;;;;;;;16.30;8.77;;;15.40;62.80;;;;;;5105874;28;20428;-67
2021/04/29 09:17:01;;;;;;;15.37;8.27;;;15.30;62.90;;;;;;5092943;28;20439;-70
2021/04/29 09:19:28;;;;;;;18.23;9.30;;;15.30;62.90;;;;;;5101827;28;20436;-73
2021/04/29 09:21:56;;;;;;;21.10;9.80;;;15.30;62.20;;;;;;5112347;28;20714;-74
2021/04/29 09:24:39;;;;;;;24.07;9.33;;;15.20;62.30;;;;;;5104438;28;20428;-75
2021/04/29 09:27:18;;;;;;;12.20;8.10;;;15.00;63.10;;;;;;5105993;28;20436;-74
2021/04/29 09:29:54;;;;;;;13.87;8.40;;;14.90;64.40;;;;;;5107728;28;20836;-72
2021/04/29 09:32:29;;;;;;;15.37;9.10;;;14.90;65.70;;;;;;5099478;28;20463;-74
2021/04/29 09:34:56;;;;;;;13.17;8.50;;;15.00;65.80;;;;;;5111321;28;20423;-75
2021/04/29 09:37:32;;;;;;;20.27;10.57;;;14.90;69.40;;;;;;5115346;28;20502;-75
2021/04/29 09:39:58;;;;;;;16.40;10.70;;;14.70;76.80;;;;;;5113581;28;20510;-73
2021/04/29 09:42:37;;;;;;;17.10;9.67;;;14.20;82.20;;;;;;5104847;28;20456;-73
2021/04/29 09:45:15;;;;;;;15.73;8.67;;;13.00;86.50;;;;;;5101084;28;20424;-75
2021/04/29 09:47:41;;;;;;;17.33;8.90;;;12.20;88.60;;;;;;5113084;28;20782;-73
2021/04/29 09:50:08;;;;;;;19.20;10.60;;;11.70;91.50;;;;;;5095626;28;20543;-73
2021/04/29 09:52:33;;;;;;;15.80;9.90;;;11.40;91.70;;;;;;5099844;28;20233;-74
2021/04/29 09:55:05;;;;;;;20.23;10.10;;;11.30;92.80;;;;;;5121831;28;20788;-73
2021/04/29 09:57:30;;;;;;;18.17;9.37;;;11.30;94.10;;;;;;5117798;28;20178;-73
2021/04/29 09:59:59;;;;;;;19.53;10.40;;;11.40;94.30;;;;;;5120580;28;20873;-73
2021/04/29 10:02:28;;;;;;;15.97;9.90;;;11.40;94.60;;;;;;5123474;28;20206;-74
2021/04/29 10:04:55;;;;;;;18.77;10.10;;;11.60;93.30;;;;;;5125626;28;20413;-73
2021/04/29 10:07:21;;;;;;;22.03;10.37;;;11.80;93.60;;;;;;5119751;28;20428;-73
2021/04/29 10:09:48;;;;;;;20.50;10.47;;;12.00;93.50;;;;;;5119227;28;20903;-75
2021/04/29 10:12:16;;;;;;;15.70;10.50;;;12.30;91.90;;;;;;5118305;28;20428;-73
2021/04/29 10:14:44;;;;;;;16.17;9.43;;;12.70;91.10;;;;;;5119976;28;20446;-72
2021/04/29 10:17:12;;;;;;;18.17;10.13;;;13.00;88.90;;;;;;5106397;28;20416;-72
2021/04/29 10:19:47;;;;;;;22.43;11.60;;;13.30;87.70;;;;;;5129612;27;20932;-73
2021/04/29 10:22:15;;;;;;;20.87;9.90;;;13.60;86.20;;;;;;5124637;28;20905;-73
2021/04/29 10:24:46;;;;;;;16.00;9.57;;;14.00;85.20;;;;;;5123219;28;20528;-74
2021/04/29 10:27:26;;;;;;;16.13;9.07;;;14.20;84.10;;;;;;5120720;28;20457;-72
2021/04/29 10:30:08;;;;;;;14.53;7.87;;;14.40;80.00;;;;;;5117683;28;20463;-74
2021/04/29 10:32:35;;;;;;;14.50;9.57;;;14.70;79.70;;;;;;5110235;28;20484;-74
2021/04/29 10:35:15;;;;;;;13.20;8.40;;;15.00;78.90;;;;;;5101364;28;20410;-73
2021/04/29 10:37:57;;;;;;;11.13;7.57;;;15.30;76.10;;;;;;5101626;28;20437;-73
2021/04/29 10:40:40;;;;;;;14.83;7.83;;;15.60;72.10;;;;;;5105147;28;20495;-72
2021/04/29 10:43:08;;;;;;;13.33;8.80;;;15.70;72.70;;;;;;5111920;28;20495;-73
2021/04/29 10:45:34;;;;;;;14.90;8.43;;;15.80;70.80;;;;;;5092894;28;20428;-74
2021/04/29 10:48:08;;;;;;;14.37;7.43;;;16.10;70.10;;;;;;5097591;28;20417;-74
2021/04/29 10:50:45;;;;;;;11.10;7.03;;;16.00;67.20;;;;;;5118964;28;20688;-75
2021/04/29 10:53:13;;;;;;;9.30;5.90;;;16.10;68.00;;;;;;5120418;28;20421;-74
2021/04/29 10:55:43;;;;;;;11.43;7.27;;;16.10;65.10;;;;;;5124477;28;20448;-73
2021/04/29 10:58:20;;;;;;;12.47;6.80;;;16.30;65.40;;;;;;5116723;28;20472;-75
2021/04/29 11:01:21;;;;;;;9.93;7.00;;;16.70;65.00;;;;;;5111897;28;20807;-72
2021/04/29 11:03:50;;;;;;;15.83;7.90;;;17.00;65.60;;;;;;5111377;28;20777;-73
2021/04/29 11:06:25;;;;;;;11.37;7.50;;;17.10;66.60;;;;;;5111658;28;20466;-72
2021/04/29 11:08:53;;;;;;;14.60;7.80;;;17.10;66.70;;;;;;5112011;28;20423;-72
2021/04/29 11:11:27;;;;;;;16.90;7.87;;;17.00;64.70;;;;;;5108404;28;20472;-73
2021/04/29 11:13:56;;;;;;;13.03;7.23;;;17.00;63.70;;;;;;5109086;28;20427;-74
2021/04/29 11:16:22;;;;;;;11.97;7.37;;;16.60;63.20;;;;;;5110464;28;20428;-74
2021/04/29 11:18:48;;;;;;;13.00;6.70;;;15.10;65.30;;;;;;5110036;28;20928;-73
2021/04/29 11:21:25;;;;;;;10.80;5.93;;;14.50;67.90;;;;;;5109981;28;20340;-75
2021/04/29 11:23:50;;;;;;;9.83;5.77;;;14.20;68.80;;;;;;5110262;28;20190;-74
2021/04/29 11:26:19;;;;;;;8.83;6.30;;;14.00;69.70;;;;;;5113236;28;20963;-70
2021/04/29 11:28:46;;;;;;;10.73;5.80;;;14.20;68.60;;;;;;5110701;28;20238;-73
2021/04/29 11:31:12;;;;;;;7.63;5.20;;;14.10;68.00;;;;;;5112664;28;20471;-74
2021/04/29 11:33:47;;;;;;;10.33;5.23;;;14.00;66.90;;;;;;5101382;28;20905;-74
2021/04/29 11:36:20;;;;;;;6.67;4.80;;;14.00;67.70;;;;;;5114661;28;20231;-74
2021/04/29 11:38:50;;;;;;;9.43;4.67;;;14.10;65.80;;;;;;5114390;28;20417;-73
2021/04/29 11:41:16;;;;;;;7.30;4.60;;;13.90;66.10;;;;;;5114137;28;20436;-74
2021/04/29 11:43:42;;;;;;;13.70;4.77;;;14.00;65.80;;;;;;5105305;28;21279;-72
2021/04/29 11:46:20;;;;;;;8.93;5.03;;;13.80;66.40;;;;;;5108231;28;20424;-74
2021/04/29 11:48:57;;;;;;;11.10;5.20;;;13.80;65.60;;;;;;5111029;28;20670;-73
2021/04/29 11:51:27;;;;;;;9.50;4.83;;;13.80;66.40;;;;;;5110575;28;20472;-72
2021/04/29 11:54:04;;;;;;;10.70;4.80;;;13.90;65.60;;;;;;5097981;28;20418;-73
2021/04/29 11:56:48;;;;;;;10.43;5.17;;;13.80;65.70;;;;;;5096758;28;20474;-74
2021/04/29 11:59:17;;;;;;;10.00;4.87;;;13.80;65.10;;;;;;5107335;28;20409;-75
2021/04/29 12:01:54;;;;;;;8.63;4.40;;;13.90;65.80;;;;;;5098066;28;20449;-74
2021/04/29 12:04:22;;;;;;;10.50;5.60;;;14.00;64.80;;;;;;5095075;28;20455;-74
2021/04/29 12:06:49;;;;;;;6.23;4.30;;;14.00;65.40;;;;;;5098546;28;20417;-72
2021/04/29 12:09:15;;;;;;;11.00;4.60;;;14.10;63.90;;;;;;5091968;28;20436;-74
2021/04/29 12:11:41;;;;;;;8.13;4.87;;;14.10;64.20;;;;;;5092685;28;20497;-75
2021/04/29 12:14:07;;;;;;;9.83;5.00;;;14.20;62.20;;;;;;5110028;28;20452;-73
2021/04/29 12:16:33;;;;;;;7.00;4.20;;;14.30;63.20;;;;;;5107341;28;20681;-74
2021/04/29 12:18:59;;;;;;;9.70;4.67;;;14.60;63.20;;;;;;5096628;28;20828;-75
2021/04/29 12:21:32;;;;;;;6.23;4.43;;;15.00;60.70;;;;;;5109633;28;20636;-73
2021/04/29 12:24:06;;;;;;;7.30;4.03;;;14.90;61.70;;;;;;5107715;28;20440;-75
2021/04/29 12:26:35;;;;;;;6.57;4.73;;;15.10;61.00;;;;;;5110456;28;20431;-74
2021/04/29 12:29:07;;;;;;;5.40;4.10;;;15.40;59.60;;;;;;5109219;28;20467;-74
2021/04/29 12:31:34;;;;;;;7.73;4.87;;;15.50;58.70;;;;;;5107278;28;20548;-76
2021/04/29 12:34:17;;;;;;;8.50;5.30;;;15.50;58.90;;;;;;5089337;28;20421;-73
2021/04/29 12:36:59;;;;;;;11.20;5.00;;;15.40;59.30;;;;;;5094150;28;20789;-75
2021/04/29 12:39:27;;;;;;;8.97;5.10;;;15.00;61.30;;;;;;5109807;28;20427;-74
2021/04/29 12:42:05;;;;;;;9.93;5.90;;;14.80;62.00;;;;;;5109476;28;20473;-76
2021/04/29 12:44:46;;;;;;;11.50;6.47;;;15.00;60.10;;;;;;5093357;28;20422;-75